Captain Cook, Hawaii
Current Conditions -  °F | °C
As of 9:53 PM on Wednesday 22 Oct 2014 (Local Time) from PHKO Reporting Station
Clear Clear  
Wind Chill: 80°   Ceiling: Unl
Heat Index: 84°   Visibility: 10mi
Dew Point: 71°   Wind: 9mph
Humidity: 74%   Direction: 130°SE
Pressure: 30"   Gusts: NA
Location:  19.49°N, 155.91°W
Report Text: PHKO 230753Z 13008KT 10SM CLR 27/22 A3000 RMK AO2 SLP158 T02670217
Loading
Personal Weather Stations






























Interactive Weather Map
Tropical Storm Tracking
New forecast layout! Learn more

10-Day Weather Forecast

Advertisements
Track Severe Weather on mobile